createdAt,value
2017-03-19T00:00:51.321Z,91.13
2017-03-19T00:01:52.565Z,91.22
2017-03-19T00:02:53.803Z,91.22
2017-03-19T00:03:55.041Z,91.22
2017-03-19T00:04:56.308Z,91.42
2017-03-19T00:05:57.528Z,91.42
2017-03-19T00:06:58.811Z,91.51
2017-03-19T00:08:00.133Z,91.32
2017-03-19T00:09:01.408Z,91.22
2017-03-19T00:10:02.613Z,91.13
2017-03-19T00:11:03.884Z,91.13
2017-03-19T00:12:05.095Z,91.13
2017-03-19T00:13:06.360Z,91.32
2017-03-19T00:14:07.594Z,90.94
2017-03-19T00:15:08.842Z,91.32
2017-03-19T00:16:10.084Z,91.7
2017-03-19T00:17:11.331Z,91.7
2017-03-19T00:18:12.568Z,91.51
2017-03-19T00:19:13.819Z,91.51
2017-03-19T00:20:15.066Z,91.61
2017-03-19T00:21:16.355Z,91.56
2017-03-19T00:22:17.601Z,91.56
2017-03-19T00:23:18.835Z,91.56
2017-03-19T00:24:20.093Z,91.65
2017-03-19T00:25:21.323Z,91.46
2017-03-19T00:26:22.579Z,91.56
2017-03-19T00:27:23.869Z,91.65
2017-03-19T00:28:25.100Z,91.46
2017-03-19T00:29:26.416Z,91.56
2017-03-19T00:30:27.650Z,91.32
2017-03-19T00:31:28.889Z,91.46
2017-03-19T00:32:30.213Z,91.37
2017-03-19T00:33:31.445Z,91.56
2017-03-19T00:34:32.695Z,91.56
2017-03-19T00:35:33.956Z,91.56
2017-03-19T00:36:35.202Z,91.37
2017-03-19T00:37:36.517Z,91.46
2017-03-19T00:38:37.751Z,91.56
2017-03-19T00:39:39.018Z,91.46
2017-03-19T00:40:40.271Z,91.37
2017-03-19T00:41:41.543Z,91.46
2017-03-19T00:42:42.785Z,91.08
2017-03-19T00:43:44.020Z,91.56
2017-03-19T00:44:45.255Z,91.56
2017-03-19T00:45:46.665Z,91.65
2017-03-19T00:46:47.959Z,91.56
2017-03-19T00:47:49.208Z,91.27
2017-03-19T00:48:50.451Z,91.65
2017-03-19T00:49:51.696Z,91.56
2017-03-19T00:50:52.942Z,91.56
2017-03-19T00:51:54.211Z,91.75
2017-03-19T00:52:55.441Z,91.84
2017-03-19T00:53:56.678Z,92.22
2017-03-19T00:54:57.909Z,91.84
2017-03-19T00:55:59.159Z,91.84
2017-03-19T00:57:00.585Z,92.6
2017-03-19T00:58:01.844Z,92.51
2017-03-19T00:59:03.102Z,92.51
2017-03-19T01:00:04.406Z,92.32
2017-03-19T01:01:05.667Z,92.79
2017-03-19T01:02:06.922Z,92.46
2017-03-19T01:03:08.265Z,92.79
2017-03-19T01:04:09.522Z,92.6
2017-03-19T01:05:10.858Z,92.6
2017-03-19T01:06:12.112Z,92.99
2017-03-19T01:07:13.360Z,92.32
2017-03-19T01:08:14.579Z,92.6
2017-03-19T01:09:15.818Z,93.27
2017-03-19T01:10:17.074Z,93.18
2017-03-19T01:11:18.326Z,92.89
2017-03-19T01:12:19.622Z,93.08
2017-03-19T01:13:20.864Z,92.99
2017-03-19T01:14:22.101Z,93.08
2017-03-19T01:15:23.345Z,92.89
2017-03-19T01:16:24.668Z,93.08
2017-03-19T01:17:25.971Z,93.18
2017-03-19T01:18:27.241Z,92.79
2017-03-19T01:19:28.490Z,92.89
2017-03-19T01:20:29.735Z,93.08
2017-03-19T01:21:30.963Z,92.99
2017-03-19T01:22:32.332Z,92.79
2017-03-19T01:23:33.464Z,93.46
2017-03-19T01:24:34.712Z,93.08
2017-03-19T01:25:35.961Z,93.18
2017-03-19T01:26:37.190Z,92.89
2017-03-19T01:27:38.450Z,93.46
2017-03-19T01:28:39.662Z,93.84
2017-03-19T01:29:40.917Z,93.74
2017-03-19T01:30:42.321Z,93.55
2017-03-19T01:31:43.556Z,93.46
2017-03-19T01:32:44.789Z,94.27
2017-03-19T01:33:46.036Z,94.37
2017-03-19T01:34:47.266Z,93.98
2017-03-19T01:35:48.496Z,94.27
2017-03-19T01:36:49.796Z,94.08
2017-03-19T01:37:51.034Z,94.37
2017-03-19T01:38:52.265Z,94.46
2017-03-19T01:39:53.499Z,94.27
2017-03-19T01:40:54.869Z,94.74
2017-03-19T01:41:56.201Z,94.84
2017-03-19T01:42:57.423Z,94.84
2017-03-19T01:43:58.667Z,94.65
2017-03-19T01:45:00.011Z,94.84
2017-03-19T01:46:01.215Z,94.93
2017-03-19T01:47:02.474Z,95.03
2017-03-19T01:48:03.700Z,95.03
2017-03-19T01:49:05.055Z,94.93
2017-03-19T01:50:06.301Z,95.03
2017-03-19T01:51:07.562Z,95.12
2017-03-19T01:52:08.809Z,95.03
2017-03-19T01:53:10.055Z,94.56
2017-03-19T01:54:11.293Z,94.56
2017-03-19T01:55:12.605Z,94.56
2017-03-19T01:56:13.851Z,94.65
2017-03-19T01:57:15.086Z,94.84
2017-03-19T01:58:16.324Z,94.74
2017-03-19T01:59:17.562Z,94.84
2017-03-19T02:00:18.803Z,94.93
2017-03-19T02:01:20.142Z,94.84
2017-03-19T02:02:21.389Z,94.7
2017-03-19T02:03:22.641Z,95.08
2017-03-19T02:04:23.905Z,94.51
2017-03-19T02:05:25.172Z,94.6
2017-03-19T02:06:26.403Z,94.93
2017-03-19T02:07:27.687Z,95.17
2017-03-19T02:08:28.922Z,94.98
2017-03-19T02:09:30.185Z,94.7
2017-03-19T02:10:31.417Z,94.6
2017-03-19T02:11:32.693Z,95.08
2017-03-19T02:12:33.916Z,94.7
2017-03-19T02:13:35.181Z,94.74
2017-03-19T02:14:36.553Z,94.79
2017-03-19T02:15:37.852Z,94.6
2017-03-19T02:16:39.095Z,94.6
2017-03-19T02:17:40.337Z,94.6
2017-03-19T02:18:41.618Z,94.79
2017-03-19T02:19:42.884Z,94.89
2017-03-19T02:20:44.121Z,94.89
2017-03-19T02:21:45.344Z,94.79
2017-03-19T02:22:46.628Z,94.79
2017-03-19T02:23:48.047Z,94.51
2017-03-19T02:24:49.300Z,95.17
2017-03-19T02:25:50.666Z,95.17
2017-03-19T02:26:52.002Z,94.98
2017-03-19T02:27:53.212Z,95.36
2017-03-19T02:28:54.458Z,95.56
2017-03-19T02:29:55.699Z,95.46
2017-03-19T02:30:57.027Z,95.36
2017-03-19T02:31:58.284Z,95.65
2017-03-19T02:32:59.508Z,95.75
2017-03-19T02:34:00.752Z,96.03
2017-03-19T02:35:02.025Z,95.89
2017-03-19T02:36:03.262Z,95.84
2017-03-19T02:37:04.612Z,96.17
2017-03-19T02:38:06.003Z,96.7
2017-03-19T02:39:07.145Z,96.6
2017-03-19T02:40:08.474Z,96.6
2017-03-19T02:41:09.714Z,96.31
2017-03-19T02:42:10.956Z,96.51
2017-03-19T02:43:12.285Z,96.6
2017-03-19T02:44:13.520Z,96.41
2017-03-19T02:45:14.920Z,96.41
2017-03-19T02:46:16.156Z,96.31
2017-03-19T02:47:17.393Z,96.7
2017-03-19T02:48:18.698Z,96.7
2017-03-19T02:49:19.929Z,96.6
2017-03-19T02:50:21.307Z,96.79
2017-03-19T02:51:22.583Z,97.27
2017-03-19T02:52:23.840Z,96.89
2017-03-19T02:53:25.059Z,97.36
2017-03-19T02:54:26.321Z,97.46
2017-03-19T02:55:27.567Z,96.31
2017-03-19T02:56:28.908Z,96.6
2017-03-19T02:57:30.287Z,96.6
2017-03-19T02:58:31.526Z,96.79
2017-03-19T02:59:32.805Z,96.7
2017-03-19T03:00:34.081Z,96.89
2017-03-19T03:01:35.329Z,97.08
2017-03-19T03:02:36.579Z,96.89
2017-03-19T03:03:37.814Z,97.46
2017-03-19T03:04:39.040Z,97.46
2017-03-19T03:05:40.293Z,97.27
2017-03-19T03:06:41.540Z,97.27
2017-03-19T03:07:42.881Z,96.89
2017-03-19T03:08:44.190Z,97.65
2017-03-19T03:09:45.527Z,97.74
2017-03-19T03:10:46.765Z,97.93
2017-03-19T03:11:48.006Z,97.74
2017-03-19T03:12:49.261Z,97.65
2017-03-19T03:13:50.486Z,97.74
2017-03-19T03:14:51.746Z,97.55
2017-03-19T03:15:52.986Z,97.93
2017-03-19T03:16:54.229Z,97.93
2017-03-19T03:17:55.460Z,97.93
2017-03-19T03:18:56.707Z,97.65
2017-03-19T03:19:57.938Z,97.74
2017-03-19T03:20:59.220Z,97.55
2017-03-19T03:22:00.568Z,97.46
2017-03-19T03:23:01.908Z,97.55
2017-03-19T03:24:03.118Z,97.65
2017-03-19T03:25:04.358Z,98.13
2017-03-19T03:26:05.570Z,98.13
2017-03-19T03:27:06.895Z,98.03
2017-03-19T03:28:08.170Z,98.03
2017-03-19T03:29:09.435Z,97.84
2017-03-19T03:30:10.682Z,97.93
2017-03-19T03:31:11.921Z,97.84
2017-03-19T03:32:13.158Z,97.93
2017-03-19T03:33:14.530Z,98.41
2017-03-19T03:34:15.791Z,98.13
2017-03-19T03:35:17.057Z,98.32
2017-03-19T03:36:18.293Z,98.03
2017-03-19T03:37:19.537Z,98.22
2017-03-19T03:38:20.788Z,97.93
2017-03-19T03:39:22.029Z,97.74
2017-03-19T03:40:23.261Z,97.84
2017-03-19T03:41:24.520Z,98.13
2017-03-19T03:42:25.789Z,98.03
2017-03-19T03:43:27.010Z,98.32
2017-03-19T03:44:28.268Z,98.32
2017-03-19T03:45:29.538Z,98.69
2017-03-19T03:46:30.778Z,98.6
2017-03-19T03:47:32.026Z,98.69
2017-03-19T03:48:33.283Z,98.88
2017-03-19T03:49:34.500Z,98.32
2017-03-19T03:50:35.741Z,98.69
2017-03-19T03:51:37.033Z,98.22
2017-03-19T03:52:38.229Z,98.41
2017-03-19T03:53:39.500Z,98.22
2017-03-19T03:54:40.747Z,98.41
2017-03-19T03:55:41.972Z,98.69
2017-03-19T03:56:43.211Z,98.6
2017-03-19T03:57:44.458Z,98.88
2017-03-19T03:58:45.717Z,98.6
2017-03-19T03:59:46.988Z,98.6
2017-03-19T04:00:48.282Z,98.98
2017-03-19T04:01:49.516Z,98.98
2017-03-19T04:02:50.773Z,98.88
2017-03-19T04:03:52.009Z,98.98
2017-03-19T04:04:53.243Z,98.98
2017-03-19T04:05:54.511Z,98.88
2017-03-19T04:06:55.760Z,98.79
2017-03-19T04:07:57.017Z,98.5
2017-03-19T04:08:58.329Z,98.5
2017-03-19T04:09:59.560Z,98.98
2017-03-19T04:11:00.798Z,98.6
2017-03-19T04:12:02.026Z,98.88
2017-03-19T04:13:03.265Z,99.27
2017-03-19T04:14:04.650Z,99.08
2017-03-19T04:15:05.889Z,99.46
2017-03-19T04:16:07.120Z,99.55
2017-03-19T04:17:08.360Z,99.46
2017-03-19T04:18:09.599Z,99.17
2017-03-19T04:19:10.858Z,99.17
2017-03-19T04:20:12.111Z,99.17
2017-03-19T04:21:13.359Z,99.36
2017-03-19T04:22:14.575Z,99.08
2017-03-19T04:23:15.828Z,99.17
2017-03-19T04:24:17.139Z,99.17
2017-03-19T04:25:18.467Z,99.84
2017-03-19T04:26:19.686Z,99.55
2017-03-19T04:27:20.931Z,99.27
2017-03-19T04:28:22.162Z,99.65
2017-03-19T04:29:23.399Z,99.65
2017-03-19T04:30:24.666Z,99.93
2017-03-19T04:31:25.880Z,99.84
2017-03-19T04:32:27.118Z,99.99
2017-03-19T04:33:28.433Z,99.93
2017-03-19T04:34:29.668Z,99.99
2017-03-19T04:35:30.907Z,99.99
2017-03-19T04:36:32.135Z,99.99
2017-03-19T04:37:33.374Z,99.65
2017-03-19T04:38:34.665Z,99.99
2017-03-19T04:39:36.046Z,99.84
2017-03-19T04:40:37.169Z,99.99
2017-03-19T04:41:38.411Z,99.99
2017-03-19T04:42:39.649Z,99.99
2017-03-19T04:43:40.913Z,99.99
2017-03-19T04:44:42.169Z,99.99
2017-03-19T04:45:43.427Z,99.99
2017-03-19T04:46:44.957Z,99.99
2017-03-19T04:47:46.205Z,99.99
2017-03-19T04:48:47.434Z,99.99
2017-03-19T04:49:48.694Z,99.99
2017-03-19T04:50:49.924Z,99.99
2017-03-19T04:51:51.281Z,99.99
2017-03-19T04:52:52.548Z,99.99
2017-03-19T04:53:53.766Z,99.99
2017-03-19T04:54:55.003Z,99.99
2017-03-19T04:55:56.241Z,99.99
2017-03-19T04:56:57.508Z,99.99
2017-03-19T04:57:58.770Z,99.99
2017-03-19T04:59:00.026Z,99.99
2017-03-19T05:00:01.244Z,99.99
2017-03-19T05:01:02.476Z,99.99
2017-03-19T05:02:03.712Z,99.99
2017-03-19T05:03:05.024Z,99.99
2017-03-19T05:04:06.415Z,99.99
2017-03-19T05:05:07.776Z,99.99
2017-03-19T05:06:08.949Z,99.99
2017-03-19T05:07:10.201Z,99.99
2017-03-19T05:08:11.450Z,99.99
2017-03-19T05:09:12.723Z,99.99
2017-03-19T05:10:14.016Z,99.99
2017-03-19T05:11:15.244Z,99.99
2017-03-19T05:12:16.500Z,99.99
2017-03-19T05:13:17.752Z,99.99
2017-03-19T05:14:19.063Z,99.99
2017-03-19T05:15:20.345Z,99.99
2017-03-19T05:16:21.563Z,99.99
2017-03-19T05:17:22.882Z,99.99
2017-03-19T05:18:24.129Z,99.99
2017-03-19T05:19:25.368Z,99.99
2017-03-19T05:20:26.664Z,99.99
2017-03-19T05:21:27.903Z,99.99
2017-03-19T05:22:29.146Z,99.99
2017-03-19T05:23:30.485Z,99.99
2017-03-19T05:24:31.726Z,99.99
2017-03-19T05:25:32.962Z,99.99
2017-03-19T05:26:34.216Z,99.99
2017-03-19T05:27:35.482Z,99.99
2017-03-19T05:28:36.861Z,99.99
2017-03-19T05:29:38.103Z,99.99
2017-03-19T05:30:39.371Z,99.99
2017-03-19T05:31:40.653Z,99.99
2017-03-19T05:32:41.866Z,99.99
2017-03-19T05:33:43.123Z,99.99
2017-03-19T05:34:44.377Z,99.99
2017-03-19T05:35:45.584Z,99.99
2017-03-19T05:36:46.831Z,99.99
2017-03-19T05:37:48.080Z,99.99
2017-03-19T05:38:49.314Z,99.99
2017-03-19T05:39:50.683Z,99.99
2017-03-19T05:40:51.934Z,99.99
2017-03-19T05:41:53.221Z,99.99
2017-03-19T05:42:54.471Z,99.99
2017-03-19T05:43:55.712Z,99.99
2017-03-19T05:44:56.964Z,99.99
2017-03-19T05:45:58.197Z,99.99
2017-03-19T05:46:59.419Z,99.99
2017-03-19T05:48:00.805Z,99.99
2017-03-19T05:49:02.175Z,99.99
2017-03-19T05:50:03.446Z,99.99
2017-03-19T05:51:04.680Z,99.99
2017-03-19T05:52:05.917Z,99.99
2017-03-19T05:53:07.192Z,99.99
2017-03-19T05:54:08.547Z,99.99
2017-03-19T05:55:09.784Z,99.99
2017-03-19T05:56:11.021Z,99.99
2017-03-19T05:57:12.254Z,99.99
2017-03-19T05:58:13.505Z,99.99
2017-03-19T05:59:14.810Z,99.99
2017-03-19T06:00:16.118Z,99.99
2017-03-19T06:01:17.360Z,99.99
2017-03-19T06:02:18.614Z,99.99
2017-03-19T06:03:19.848Z,99.99
2017-03-19T06:04:21.108Z,99.99
2017-03-19T06:05:22.480Z,99.99
2017-03-19T06:06:23.670Z,99.99
2017-03-19T06:07:24.983Z,99.99
2017-03-19T06:08:26.217Z,99.99
2017-03-19T06:09:27.483Z,99.99
2017-03-19T06:10:28.821Z,99.99
2017-03-19T06:11:30.047Z,99.99
2017-03-19T06:12:31.282Z,99.99
2017-03-19T06:13:32.526Z,99.99
2017-03-19T06:14:33.799Z,99.99
2017-03-19T06:15:35.025Z,99.99
2017-03-19T06:16:36.284Z,99.99
2017-03-19T06:17:37.543Z,99.99
2017-03-19T06:18:38.773Z,99.99
2017-03-19T06:19:40.013Z,99.99
2017-03-19T06:20:41.269Z,99.99
2017-03-19T06:21:42.509Z,99.99
2017-03-19T06:22:43.752Z,99.99
2017-03-19T06:23:45.012Z,99.99
2017-03-19T06:24:46.300Z,99.99
2017-03-19T06:25:47.555Z,99.99
2017-03-19T06:26:48.773Z,99.99
2017-03-19T06:27:50.051Z,99.99
2017-03-19T06:28:51.313Z,99.99
2017-03-19T06:29:52.545Z,99.99
2017-03-19T06:30:53.797Z,99.99
2017-03-19T06:31:55.021Z,99.99
2017-03-19T06:32:56.272Z,99.99
2017-03-19T06:33:57.517Z,99.99
2017-03-19T06:34:58.751Z,99.99
2017-03-19T06:35:59.989Z,99.99
2017-03-19T06:37:01.245Z,99.99
2017-03-19T06:38:02.677Z,99.99
2017-03-19T06:39:04.042Z,99.99
2017-03-19T06:40:05.175Z,99.99
2017-03-19T06:41:06.411Z,99.99
2017-03-19T06:42:07.668Z,99.99
2017-03-19T06:43:08.939Z,99.99
2017-03-19T06:44:10.338Z,99.99
2017-03-19T06:45:11.573Z,99.99
2017-03-19T06:46:12.835Z,99.99
2017-03-19T06:47:14.059Z,99.99
2017-03-19T06:48:15.327Z,99.99
2017-03-19T06:49:16.598Z,99.99
2017-03-19T06:50:17.838Z,99.99
2017-03-19T06:51:19.083Z,99.99
2017-03-19T06:52:20.343Z,99.99
2017-03-19T06:53:21.571Z,99.99
2017-03-19T06:54:22.811Z,99.99
2017-03-19T06:55:24.048Z,99.99
2017-03-19T06:56:25.311Z,99.99
2017-03-19T06:57:26.677Z,99.99
2017-03-19T06:58:27.913Z,99.99
2017-03-19T06:59:29.153Z,99.99
2017-03-19T07:00:30.389Z,99.99
2017-03-19T07:01:31.628Z,99.99
2017-03-19T07:02:32.876Z,99.99
2017-03-19T07:03:34.247Z,99.99
2017-03-19T07:04:35.371Z,99.99
2017-03-19T07:05:36.623Z,99.99
2017-03-19T07:06:37.862Z,99.99
2017-03-19T07:07:39.111Z,99.99
2017-03-19T07:08:40.332Z,99.99
2017-03-19T07:09:41.571Z,99.99
2017-03-19T07:10:42.858Z,99.99
2017-03-19T07:11:44.096Z,99.99
2017-03-19T07:12:45.351Z,99.99
2017-03-19T07:13:46.577Z,99.99
2017-03-19T07:14:47.816Z,99.99
2017-03-19T07:15:49.088Z,99.99
2017-03-19T07:16:50.349Z,99.99
2017-03-19T07:17:51.577Z,99.99
2017-03-19T07:18:52.840Z,99.99
2017-03-19T07:19:54.100Z,99.99
2017-03-19T07:20:55.320Z,99.99
2017-03-19T07:21:56.619Z,99.99
2017-03-19T07:22:57.840Z,99.99
2017-03-19T07:23:59.087Z,99.99
2017-03-19T07:25:00.339Z,99.99
2017-03-19T07:26:01.586Z,99.99
2017-03-19T07:27:02.825Z,99.99
2017-03-19T07:28:04.107Z,99.99
2017-03-19T07:29:05.321Z,99.99
2017-03-19T07:30:06.564Z,99.99
2017-03-19T07:31:07.918Z,99.99
2017-03-19T07:32:09.040Z,99.99
2017-03-19T07:33:10.306Z,99.99
2017-03-19T07:34:11.528Z,99.99
2017-03-19T07:35:12.785Z,99.99
2017-03-19T07:36:14.305Z,99.99
2017-03-19T07:37:15.487Z,99.99
2017-03-19T07:38:16.805Z,99.99
2017-03-19T07:39:18.056Z,99.99
2017-03-19T07:40:19.309Z,99.99
2017-03-19T07:41:20.546Z,99.99
2017-03-19T07:42:21.782Z,99.99
2017-03-19T07:43:23.033Z,99.99
2017-03-19T07:44:24.306Z,99.99
2017-03-19T07:45:25.503Z,99.99
2017-03-19T07:46:26.767Z,99.99
2017-03-19T07:47:27.993Z,99.99
2017-03-19T07:48:29.236Z,99.99
2017-03-19T07:49:30.488Z,99.99
2017-03-19T07:50:31.869Z,99.99
2017-03-19T07:51:33.100Z,99.99
2017-03-19T07:52:34.364Z,99.99
2017-03-19T07:53:35.604Z,99.99
2017-03-19T07:54:36.843Z,99.99
2017-03-19T07:55:38.312Z,99.99
2017-03-19T07:56:39.554Z,99.99
2017-03-19T07:57:40.820Z,99.99
2017-03-19T07:58:42.042Z,99.99
2017-03-19T07:59:43.414Z,99.99
2017-03-19T08:00:44.674Z,99.99
2017-03-19T08:01:45.914Z,99.99
2017-03-19T08:02:47.233Z,99.99
2017-03-19T08:03:48.474Z,99.99
2017-03-19T08:04:49.715Z,99.99
2017-03-19T08:05:50.956Z,99.99
2017-03-19T08:06:52.227Z,99.99
2017-03-19T08:07:53.462Z,99.99
2017-03-19T08:08:54.721Z,99.99
2017-03-19T08:09:55.979Z,99.99
2017-03-19T08:10:57.219Z,99.99
2017-03-19T08:11:58.488Z,99.99
2017-03-19T08:12:59.737Z,99.99
2017-03-19T08:14:01.020Z,99.99
2017-03-19T08:15:02.261Z,99.99
2017-03-19T08:16:03.514Z,99.99
2017-03-19T08:17:04.757Z,99.99
2017-03-19T08:18:06.025Z,99.99
2017-03-19T08:19:07.379Z,99.99
2017-03-19T08:20:08.713Z,99.99
2017-03-19T08:21:10.055Z,99.99
2017-03-19T08:22:11.296Z,99.99
2017-03-19T08:23:12.531Z,99.99
2017-03-19T08:24:13.775Z,99.99
2017-03-19T08:25:15.096Z,99.99
2017-03-19T08:26:16.350Z,99.99
2017-03-19T08:27:17.617Z,99.99
2017-03-19T08:28:18.856Z,99.99
2017-03-19T08:29:20.089Z,99.99
2017-03-19T08:30:21.335Z,99.99
2017-03-19T08:31:22.712Z,99.99
2017-03-19T08:32:23.975Z,99.99
2017-03-19T08:33:25.273Z,99.99
2017-03-19T08:34:26.539Z,99.99
2017-03-19T08:35:27.758Z,99.99
2017-03-19T08:36:29.041Z,99.99
2017-03-19T08:37:30.325Z,99.99
2017-03-19T08:38:31.558Z,99.99
2017-03-19T08:39:32.810Z,99.99
2017-03-19T08:40:34.063Z,99.99
2017-03-19T08:41:35.297Z,99.99
2017-03-19T08:42:36.583Z,99.99
2017-03-19T08:43:37.810Z,99.99
2017-03-19T08:44:39.095Z,99.99
2017-03-19T08:45:40.368Z,99.99
2017-03-19T08:46:41.602Z,99.99
2017-03-19T08:47:42.832Z,99.99
2017-03-19T08:48:44.074Z,99.99
2017-03-19T08:49:45.328Z,99.99
2017-03-19T08:50:46.616Z,99.99
2017-03-19T08:51:47.856Z,99.99
2017-03-19T08:52:49.127Z,99.99
2017-03-19T08:53:50.364Z,99.99
2017-03-19T08:54:51.625Z,99.99
2017-03-19T08:55:52.878Z,99.99
2017-03-19T08:56:54.133Z,99.99
2017-03-19T08:57:55.402Z,99.99
2017-03-19T08:58:56.663Z,99.99
2017-03-19T08:59:57.960Z,99.99
2017-03-19T09:00:59.182Z,99.99
2017-03-19T09:02:00.453Z,99.99
2017-03-19T09:03:01.681Z,99.99
2017-03-19T09:04:02.986Z,99.99
2017-03-19T09:05:04.259Z,99.99
2017-03-19T09:06:05.503Z,99.99
2017-03-19T09:07:06.822Z,99.99
2017-03-19T09:08:08.044Z,99.99
2017-03-19T09:09:09.357Z,99.99
2017-03-19T09:10:10.785Z,99.99
2017-03-19T09:11:12.026Z,99.99
2017-03-19T09:12:13.281Z,99.99
2017-03-19T09:13:14.522Z,99.99
2017-03-19T09:14:15.762Z,99.99
2017-03-19T09:15:17.028Z,99.99
2017-03-19T09:16:18.342Z,99.99
2017-03-19T09:17:19.530Z,99.99
2017-03-19T09:18:20.780Z,99.99
2017-03-19T09:19:22.067Z,99.99
2017-03-19T09:20:23.310Z,99.99
2017-03-19T09:21:24.734Z,99.99
2017-03-19T09:22:25.993Z,99.99
2017-03-19T09:23:27.213Z,99.99
2017-03-19T09:24:28.469Z,99.99
2017-03-19T09:25:29.721Z,99.99
2017-03-19T09:26:30.975Z,99.99
2017-03-19T09:27:32.248Z,99.99
2017-03-19T09:28:33.481Z,99.99
2017-03-19T09:29:34.731Z,99.99
2017-03-19T09:30:35.985Z,99.99
2017-03-19T09:31:37.233Z,99.66
2017-03-19T09:32:38.471Z,99.85
2017-03-19T09:33:39.712Z,99.75
2017-03-19T09:34:41.051Z,99.46
2017-03-19T09:35:42.390Z,99.56
2017-03-19T09:36:43.645Z,99.18
2017-03-19T09:37:44.878Z,99.27
2017-03-19T09:38:46.117Z,99.46
2017-03-19T09:39:47.372Z,99.37
2017-03-19T09:40:48.654Z,99.18
2017-03-19T09:41:49.907Z,99.37
2017-03-19T09:42:51.138Z,99.18
2017-03-19T09:43:52.372Z,98.7
2017-03-19T09:44:53.628Z,98.9
2017-03-19T09:45:54.881Z,98.42
2017-03-19T09:46:56.174Z,98.8
2017-03-19T09:47:57.389Z,99.18
2017-03-19T09:48:58.652Z,98.51
2017-03-19T09:49:59.911Z,98.8
2017-03-19T09:51:01.159Z,98.7
2017-03-19T09:52:02.392Z,98.51
2017-03-19T09:53:03.653Z,98.42
2017-03-19T09:54:05.006Z,98.51
2017-03-19T09:55:06.272Z,98.22
2017-03-19T09:56:07.499Z,98.13
2017-03-19T09:57:08.737Z,97.94
2017-03-19T09:58:09.975Z,98.51
2017-03-19T09:59:11.218Z,98.22
2017-03-19T10:00:12.546Z,97.66
2017-03-19T10:01:13.829Z,97.85
2017-03-19T10:02:15.035Z,97.8
2017-03-19T10:03:16.279Z,97.94
2017-03-19T10:04:17.521Z,97.22
2017-03-19T10:05:18.798Z,97.37
2017-03-19T10:06:20.043Z,97.61
2017-03-19T10:07:21.307Z,97.27
2017-03-19T10:08:22.563Z,97.32
2017-03-19T10:09:23.830Z,96.84
2017-03-19T10:10:25.059Z,97.03
2017-03-19T10:11:26.280Z,97.32
2017-03-19T10:12:27.537Z,97.13
2017-03-19T10:13:28.890Z,96.84
2017-03-19T10:14:30.138Z,96.56
2017-03-19T10:15:31.377Z,96.46
2017-03-19T10:16:32.618Z,96.56
2017-03-19T10:17:33.865Z,96.08
2017-03-19T10:18:35.159Z,96.84
2017-03-19T10:19:36.465Z,96.27
2017-03-19T10:20:37.682Z,96.46
2017-03-19T10:21:38.949Z,96.75
2017-03-19T10:22:40.196Z,96.84
2017-03-19T10:23:41.440Z,96.08
2017-03-19T10:24:42.736Z,96.37
2017-03-19T10:25:44.001Z,96.17
2017-03-19T10:26:45.271Z,95.7
2017-03-19T10:27:46.539Z,96.17
2017-03-19T10:28:47.770Z,95.89
2017-03-19T10:29:49.107Z,95.7
2017-03-19T10:30:50.362Z,95.98
2017-03-19T10:31:51.656Z,95.98
2017-03-19T10:32:52.944Z,95.51
2017-03-19T10:33:54.291Z,96.17
2017-03-19T10:34:55.527Z,95.89
2017-03-19T10:35:56.763Z,96.17
2017-03-19T10:36:58.002Z,96.08
2017-03-19T10:37:59.243Z,95.98
2017-03-19T10:39:00.497Z,96.56
2017-03-19T10:40:01.769Z,95.98
2017-03-19T10:41:02.995Z,96.37
2017-03-19T10:42:04.238Z,96.84
2017-03-19T10:43:05.505Z,96.17
2017-03-19T10:44:06.802Z,95.98
2017-03-19T10:45:08.142Z,95.98
2017-03-19T10:46:09.304Z,96.37
2017-03-19T10:47:10.572Z,96.84
2017-03-19T10:48:11.793Z,96.17
2017-03-19T10:49:13.028Z,96.66
2017-03-19T10:50:14.299Z,96.66
2017-03-19T10:51:15.517Z,95.98
2017-03-19T10:52:16.756Z,96.56
2017-03-19T10:53:17.988Z,95.7
2017-03-19T10:54:19.239Z,95.41
2017-03-19T10:55:20.492Z,95.89
2017-03-19T10:56:21.745Z,95.7
2017-03-19T10:57:23.046Z,96.27
2017-03-19T10:58:24.294Z,96.08
2017-03-19T10:59:25.541Z,95.51
2017-03-19T11:00:26.794Z,95.7
2017-03-19T11:01:28.049Z,95.51
2017-03-19T11:02:29.291Z,95.51
2017-03-19T11:03:30.680Z,95.79
2017-03-19T11:04:31.942Z,95.61
2017-03-19T11:05:33.161Z,95.7
2017-03-19T11:06:34.394Z,94.74
2017-03-19T11:07:35.627Z,94.84
2017-03-19T11:08:36.872Z,94.27
2017-03-19T11:09:38.115Z,94.56
2017-03-19T11:10:39.368Z,94.56
2017-03-19T11:11:40.612Z,94.65
2017-03-19T11:12:41.852Z,95.22
2017-03-19T11:13:43.109Z,94.56
2017-03-19T11:14:44.332Z,94.65
2017-03-19T11:15:45.609Z,94.56
2017-03-19T11:16:47.018Z,94.46
2017-03-19T11:17:48.280Z,94.65
2017-03-19T11:18:49.522Z,94.07
2017-03-19T11:19:50.763Z,94.17
2017-03-19T11:20:52.027Z,93.98
2017-03-19T11:21:53.298Z,94.36
2017-03-19T11:22:54.598Z,94.07
2017-03-19T11:23:55.835Z,94.12
2017-03-19T11:24:57.130Z,93.7
2017-03-19T11:25:58.408Z,93.93
2017-03-19T11:26:59.651Z,93.55
2017-03-19T11:28:00.889Z,93.65
2017-03-19T11:29:02.141Z,93.36
2017-03-19T11:30:03.478Z,93.07
2017-03-19T11:31:04.724Z,92.12
2017-03-19T11:32:05.966Z,92.02
2017-03-19T11:33:07.224Z,91.4
2017-03-19T11:34:08.492Z,91.3
2017-03-19T11:35:09.720Z,90.64
2017-03-19T11:36:11.050Z,90.16
2017-03-19T11:37:12.280Z,89.59
2017-03-19T11:38:13.517Z,89.44
2017-03-19T11:39:14.786Z,88.96
2017-03-19T11:40:16.005Z,88.48
2017-03-19T11:41:17.267Z,88.2
2017-03-19T11:42:18.568Z,88.29
2017-03-19T11:43:19.758Z,88.39
2017-03-19T11:44:21.101Z,88.29
2017-03-19T11:45:22.335Z,87.72
2017-03-19T11:46:23.584Z,88.2
2017-03-19T11:47:24.863Z,88.2
2017-03-19T11:48:26.105Z,88.2
2017-03-19T11:49:27.357Z,88.1
2017-03-19T11:50:28.601Z,87.72
2017-03-19T11:51:29.837Z,88.39
2017-03-19T11:52:31.063Z,87.34
2017-03-19T11:53:32.313Z,86.96
2017-03-19T11:54:33.566Z,86.86
2017-03-19T11:55:34.876Z,87.05
2017-03-19T11:56:36.203Z,87.48
2017-03-19T11:57:37.455Z,87.96
2017-03-19T11:58:38.703Z,87.96
2017-03-19T11:59:39.983Z,88.25
2017-03-19T12:00:41.294Z,88.25
2017-03-19T12:01:42.569Z,88.06
2017-03-19T12:02:43.959Z,88.44
2017-03-19T12:03:45.129Z,88.15
2017-03-19T12:04:46.347Z,89.01
2017-03-19T12:05:47.586Z,89.01
2017-03-19T12:06:48.840Z,88.92
2017-03-19T12:07:50.093Z,88.44
2017-03-19T12:08:51.307Z,87.87
2017-03-19T12:09:52.561Z,87.96
2017-03-19T12:10:53.801Z,88.06
2017-03-19T12:11:55.040Z,87.73
2017-03-19T12:12:56.289Z,87.63
2017-03-19T12:13:57.625Z,88.11
2017-03-19T12:14:58.950Z,88.3
2017-03-19T12:16:00.302Z,88.4
2017-03-19T12:17:01.555Z,89.06
2017-03-19T12:18:02.790Z,89.06
2017-03-19T12:19:04.037Z,88.49
2017-03-19T12:20:05.305Z,88.87
2017-03-19T12:21:06.557Z,88.87
2017-03-19T12:22:07.787Z,88.68
2017-03-19T12:23:09.034Z,89.54
2017-03-19T12:24:10.278Z,90.21
2017-03-19T12:25:11.648Z,89.73
2017-03-19T12:26:12.841Z,90.21
2017-03-19T12:27:14.163Z,89.64
2017-03-19T12:28:15.360Z,89.54
2017-03-19T12:29:16.591Z,90.31
2017-03-19T12:30:17.881Z,89.73
2017-03-19T12:31:19.112Z,90.4
2017-03-19T12:32:20.356Z,90.11
2017-03-19T12:33:21.604Z,89.92
2017-03-19T12:34:22.874Z,90.11
2017-03-19T12:35:24.122Z,90.59
2017-03-19T12:36:25.362Z,89.73
2017-03-19T12:37:26.600Z,89.83
2017-03-19T12:38:27.867Z,89.83
2017-03-19T12:39:29.099Z,90.5
2017-03-19T12:40:30.363Z,90.4
2017-03-19T12:41:31.606Z,91.26
2017-03-19T12:42:32.872Z,91.55
2017-03-19T12:43:34.082Z,91.64
2017-03-19T12:44:35.337Z,92.21
2017-03-19T12:45:36.682Z,92.02
2017-03-19T12:46:37.873Z,92.65
2017-03-19T12:47:39.169Z,92.31
2017-03-19T12:48:40.411Z,92.69
2017-03-19T12:49:41.667Z,93.41
2017-03-19T12:50:42.915Z,93.31
2017-03-19T12:51:44.151Z,94.17
2017-03-19T12:52:45.419Z,93.88
2017-03-19T12:53:46.752Z,93.98
2017-03-19T12:54:48.034Z,94.46
2017-03-19T12:55:49.284Z,94.07
2017-03-19T12:56:50.505Z,93.7
2017-03-19T12:57:51.746Z,93.31
2017-03-19T12:58:53.163Z,93.12
2017-03-19T12:59:54.382Z,92.55
2017-03-19T13:00:55.631Z,92.26
2017-03-19T13:01:56.879Z,92.36
2017-03-19T13:02:58.111Z,91.88
2017-03-19T13:03:59.352Z,92.46
2017-03-19T13:05:00.723Z,92.17
2017-03-19T13:06:02.110Z,92.55
2017-03-19T13:07:03.255Z,92.65
2017-03-19T13:08:04.516Z,92.17
2017-03-19T13:09:05.756Z,92.36
2017-03-19T13:10:07.156Z,91.69
2017-03-19T13:11:08.629Z,91.41